Time;durP1;ratioP1;P1;durP2;ratioP2;P2;SDS_P1;SDS_P2;PMS_P1;PMS_P2;Temp;Humidity;BMP_temperature;BMP_pressure;BME280_temperature;BME280_humidity;BME280_pressure;Samples;Min_cycle;Max_cycle;Signal;HPM_P1;HPM_P2
2022/04/30 00:00:05;;;;;;;21.45;10.70;;;;;;;5.84;72.51;101695.25;5090700;28;20115;-69
2022/04/30 00:02:31;;;;;;;16.15;9.38;;;;;;;5.91;72.28;101691.91;5074120;28;20049;-69
2022/04/30 00:04:56;;;;;;;15.85;9.25;;;;;;;5.90;71.86;101695.34;5088647;28;20175;-71
2022/04/30 00:07:22;;;;;;;22.45;12.05;;;;;;;5.88;71.49;101687.50;5092899;28;20043;-67
2022/04/30 00:09:48;;;;;;;19.33;10.75;;;;;;;5.87;71.27;101690.09;5084360;28;20023;-69
2022/04/30 00:12:16;;;;;;;19.30;11.30;;;;;;;5.84;71.20;101685.69;5078906;28;20115;-70
2022/04/30 00:14:42;;;;;;;19.60;11.80;;;;;;;5.85;70.78;101683.97;5078596;28;20044;-69
2022/04/30 00:17:08;;;;;;;16.80;9.48;;;;;;;5.80;70.74;101686.50;5077524;28;20039;-69
2022/04/30 00:19:33;;;;;;;17.58;10.77;;;;;;;5.86;69.74;101689.19;5078281;28;20399;-69
2022/04/30 00:21:59;;;;;;;16.40;9.68;;;;;;;5.64;70.96;101694.88;5064488;28;20033;-70
2022/04/30 00:24:26;;;;;;;19.52;11.32;;;;;;;5.57;71.22;101691.25;5080539;28;20160;-69
2022/04/30 00:26:52;;;;;;;17.55;11.07;;;;;;;5.61;70.97;101689.59;5090546;28;20041;-71
2022/04/30 00:29:17;;;;;;;19.70;11.77;;;;;;;5.54;71.05;101688.59;5078615;28;20506;-70
2022/04/30 00:31:43;;;;;;;21.05;13.73;;;;;;;5.49;71.50;101695.44;5061117;28;20040;-70
2022/04/30 00:34:09;;;;;;;22.52;13.27;;;;;;;5.42;71.38;101694.44;5081609;28;20039;-70
2022/04/30 00:36:35;;;;;;;16.42;10.10;;;;;;;5.28;71.93;101690.69;5089985;28;20043;-70
2022/04/30 00:39:02;;;;;;;18.77;11.25;;;;;;;5.25;71.87;101695.81;5088547;28;20063;-70
2022/04/30 00:41:31;;;;;;;19.77;12.30;;;;;;;5.27;71.71;101693.28;5091036;28;20036;-70
2022/04/30 00:43:56;;;;;;;21.33;12.10;;;;;;;5.22;71.83;101689.66;5091831;28;20058;-70
2022/04/30 00:46:23;;;;;;;15.98;10.43;;;;;;;5.22;71.76;101687.94;5092733;28;20479;-70
2022/04/30 00:48:50;;;;;;;19.13;11.38;;;;;;;5.14;71.81;101687.78;5076454;28;20121;-69
2022/04/30 00:51:20;;;;;;;18.75;11.38;;;;;;;5.02;72.02;101692.72;5056604;28;20070;-69
2022/04/30 00:53:52;;;;;;;18.63;11.73;;;;;;;4.83;72.83;101691.44;5075341;28;20125;-69
2022/04/30 00:56:25;;;;;;;21.00;11.63;;;;;;;4.94;72.72;101702.97;5092893;28;20032;-69
2022/04/30 00:58:55;;;;;;;18.42;11.60;;;;;;;4.97;72.08;101689.13;5089027;28;20186;-69
2022/04/30 01:01:22;;;;;;;20.50;11.52;;;;;;;4.84;72.39;101685.38;5092277;28;20039;-68
2022/04/30 01:03:47;;;;;;;18.35;11.02;;;;;;;4.81;72.27;101687.91;5086249;28;20110;-69
2022/04/30 01:06:13;;;;;;;15.88;9.60;;;;;;;4.77;72.33;101687.81;5078668;28;20135;-69
2022/04/30 01:08:39;;;;;;;20.20;11.68;;;;;;;4.70;72.26;101692.88;5082701;28;20118;-70
2022/04/30 01:11:05;;;;;;;15.63;9.82;;;;;;;4.64;72.72;101690.13;5070903;28;20083;-70
2022/04/30 01:13:35;;;;;;;17.02;9.68;;;;;;;4.60;72.61;101682.22;5078074;28;20076;-70
2022/04/30 01:16:06;;;;;;;16.75;10.50;;;;;;;4.54;72.94;101682.94;5080489;28;20493;-70
2022/04/30 01:18:36;;;;;;;18.75;11.20;;;;;;;4.58;72.85;101689.09;5089476;28;20035;-70
2022/04/30 01:21:10;;;;;;;19.83;11.40;;;;;;;4.62;72.27;101678.78;5070455;28;20024;-70
2022/04/30 01:23:36;;;;;;;16.40;10.30;;;;;;;4.69;72.01;101685.03;5073424;28;20039;-70
2022/04/30 01:26:03;;;;;;;17.88;11.38;;;;;;;4.64;71.34;101679.72;5074128;28;20032;-70
2022/04/30 01:28:29;;;;;;;17.60;10.85;;;;;;;4.66;71.08;101682.34;5046304;28;20039;-70
2022/04/30 01:30:55;;;;;;;17.33;10.50;;;;;;;4.51;71.65;101672.47;5085403;28;20534;-70
2022/04/30 01:38:57;;;;;;;15.82;9.82;;;;;;;4.26;72.62;101667.50;5066509;28;20043;-71
2022/04/30 01:41:22;;;;;;;20.38;12.32;;;;;;;4.26;72.23;101671.00;5077371;28;20033;-70
2022/04/30 01:43:49;;;;;;;23.60;14.23;;;;;;;4.19;73.02;101666.50;5077110;28;20379;-69
2022/04/30 01:46:15;;;;;;;22.10;14.07;;;;;;;4.15;73.22;101664.66;5075575;28;20048;-71
2022/04/30 01:48:41;;;;;;;24.83;13.80;;;;;;;4.17;73.53;101663.84;5083711;28;20471;-71
2022/04/30 01:51:06;;;;;;;21.13;12.63;;;;;;;4.22;73.48;101670.88;5091988;28;20039;-70
2022/04/30 01:53:31;;;;;;;26.90;15.73;;;;;;;4.36;72.73;101670.38;5089008;28;20032;-70
2022/04/30 01:55:57;;;;;;;27.65;16.45;;;;;;;4.23;73.23;101664.81;5089467;28;20435;-70
2022/04/30 01:58:22;;;;;;;21.33;13.02;;;;;;;4.20;73.27;101665.66;5090598;28;20039;-70
2022/04/30 02:00:48;;;;;;;23.55;13.23;;;;;;;4.33;72.93;101656.41;5085764;28;20107;-70
2022/04/30 02:03:14;;;;;;;23.90;13.07;;;;;;;4.32;72.54;101659.88;5088312;28;20035;-70
2022/04/30 02:05:40;;;;;;;29.98;15.70;;;;;;;4.35;71.88;101654.72;5087657;28;20052;-71
2022/04/30 02:08:15;;;;;;;26.48;14.55;;;;;;;4.27;72.00;101656.25;5069703;28;20037;-70
2022/04/30 02:10:42;;;;;;;25.98;13.75;;;;;;;4.20;72.32;101655.25;5075365;28;20033;-70
2022/04/30 02:13:09;;;;;;;26.38;14.05;;;;;;;4.31;71.97;101650.28;5054453;28;20041;-70
2022/04/30 02:15:37;;;;;;;28.63;15.82;;;;;;;4.15;72.16;101647.34;5075693;28;20036;-70
2022/04/30 02:18:03;;;;;;;31.05;16.70;;;;;;;4.18;72.36;101647.38;5075269;28;20036;-70
2022/04/30 02:20:31;;;;;;;27.75;15.13;;;;;;;4.09;72.87;101652.38;5083863;28;20051;-70
2022/04/30 02:22:58;;;;;;;23.67;12.68;;;;;;;3.97;73.40;101646.84;5089623;28;20064;-71
2022/04/30 02:25:25;;;;;;;29.05;14.88;;;;;;;3.99;73.36;101645.19;5089336;28;20035;-70
2022/04/30 02:27:53;;;;;;;23.40;13.52;;;;;;;4.00;73.82;101641.75;5077746;28;20032;-70
2022/04/30 02:30:21;;;;;;;20.98;11.70;;;;;;;4.09;73.15;101644.56;5080081;28;20121;-69
2022/04/30 02:32:49;;;;;;;20.45;11.30;;;;;;;4.14;72.82;101645.53;5067690;28;20036;-70
2022/04/30 02:35:16;;;;;;;34.22;16.27;;;;;;;4.15;73.12;101647.34;5087943;28;20119;-69
2022/04/30 02:37:45;;;;;;;157.90;58.85;;;;;;;4.14;73.77;101650.75;5085325;28;20093;-70
2022/04/30 02:40:15;;;;;;;107.45;44.47;;;;;;;4.13;73.52;101648.13;5089798;28;20135;-69
2022/04/30 02:42:41;;;;;;;70.90;32.13;;;;;;;4.12;73.29;101651.56;5074023;28;20483;-70
2022/04/30 02:45:09;;;;;;;48.42;22.10;;;;;;;4.14;73.84;101650.75;5084857;28;20028;-70
2022/04/30 02:47:39;;;;;;;44.88;21.13;;;;;;;4.13;73.77;101648.13;5071631;28;20395;-70
2022/04/30 02:50:08;;;;;;;52.35;24.50;;;;;;;4.09;74.17;101648.88;5075315;28;20475;-70
2022/04/30 02:52:35;;;;;;;79.53;34.80;;;;;;;4.12;73.60;101652.44;5087525;28;20487;-70
2022/04/30 02:55:00;;;;;;;49.08;23.30;;;;;;;4.18;72.98;101649.09;5086560;28;20040;-70
2022/04/30 03:00:44;;;;;;;41.63;19.45;;;;;;;4.11;74.29;101644.59;5088383;28;20086;-70
2022/04/30 03:03:12;;;;;;;49.47;23.80;;;;;;;4.15;74.21;101647.34;5090247;28;20040;-70
2022/04/30 03:05:43;;;;;;;44.53;20.65;;;;;;;4.09;73.84;101651.50;5088050;28;20101;-70
2022/04/30 03:08:13;;;;;;;42.70;19.02;;;;;;;4.24;73.21;101645.78;5086660;28;20456;-69
2022/04/30 03:10:44;;;;;;;55.42;21.10;;;;;;;4.27;72.69;101640.63;5074535;28;20388;-69
2022/04/30 03:13:10;;;;;;;57.90;22.42;;;;;;;4.47;71.69;101641.13;5073910;28;20062;-69
2022/04/30 03:15:39;;;;;;;59.45;22.77;;;;;;;4.43;71.49;101645.41;5075805;28;20040;-70
2022/04/30 03:23:38;;;;;;;55.05;21.13;;;;;;;4.33;71.31;101640.81;5079123;28;20572;-69
2022/04/30 03:26:05;;;;;;;59.35;22.10;;;;;;;4.25;71.89;101642.34;5068991;28;20440;-69
2022/04/30 03:28:36;;;;;;;55.80;22.40;;;;;;;4.52;70.75;101642.13;5039097;28;20045;-69
2022/04/30 03:31:03;;;;;;;56.15;21.65;;;;;;;4.53;70.77;101642.16;5068955;28;20065;-70
2022/04/30 03:33:28;;;;;;;51.80;19.40;;;;;;;4.53;70.86;101643.88;5078649;28;20537;-69
2022/04/30 03:35:54;;;;;;;40.58;15.80;;;;;;;4.57;70.51;101640.50;5069010;28;20123;-69
2022/04/30 03:38:20;;;;;;;31.80;14.38;;;;;;;4.56;71.18;101642.22;5080606;28;20032;-69
2022/04/30 03:40:45;;;;;;;30.38;14.13;;;;;;;4.68;71.09;101639.91;5073087;28;20060;-69
2022/04/30 03:43:11;;;;;;;23.77;13.00;;;;;;;4.75;71.00;101637.41;5062499;28;20040;-69
2022/04/30 03:45:36;;;;;;;28.98;12.73;;;;;;;4.85;70.65;101639.38;5069541;28;20476;-69
2022/04/30 03:48:03;;;;;;;33.53;14.60;;;;;;;4.91;70.26;101637.81;5088212;28;20028;-69
2022/04/30 03:50:28;;;;;;;61.92;25.70;;;;;;;4.97;70.21;101642.25;5088056;28;20032;-68
2022/04/30 03:52:54;;;;;;;46.67;20.33;;;;;;;4.94;70.32;101636.97;5067005;28;20377;-70
2022/04/30 03:55:19;;;;;;;29.70;15.98;;;;;;;4.98;70.40;101632.72;5078677;28;20058;-69
2022/04/30 03:57:44;;;;;;;35.35;16.05;;;;;;;4.96;70.50;101640.50;5072671;28;20487;-70
2022/04/30 04:00:11;;;;;;;67.22;28.88;;;;;;;4.91;71.41;101631.72;5084262;28;20078;-68
2022/04/30 04:02:40;;;;;;;35.38;17.10;;;;;;;4.91;71.94;101634.31;5087751;28;20040;-68
2022/04/30 04:05:07;;;;;;;28.63;14.15;;;;;;;5.18;71.18;101642.69;5051302;28;20173;-64
2022/04/30 04:07:33;;;;;;;20.88;11.80;;;;;;;5.35;70.74;101634.34;5084982;28;20040;-64
2022/04/30 04:09:58;;;;;;;18.40;10.23;;;;;;;5.46;70.90;101630.19;5089121;28;20386;-66
2022/04/30 04:12:24;;;;;;;15.40;9.85;;;;;;;5.62;70.46;101636.59;5088309;28;20036;-64
2022/04/30 04:17:41;;;;;;;16.10;10.38;;;;;;;5.82;69.58;101624.78;5088021;28;20403;-63
2022/04/30 04:20:13;;;;;;;20.20;10.43;;;;;;;5.84;70.06;101627.44;5069339;28;20056;-63
2022/04/30 04:22:39;;;;;;;17.27;9.25;;;;;;;5.87;70.12;101623.16;5077707;28;20028;-63
2022/04/30 04:27:54;;;;;;;18.48;11.05;;;;;;;6.07;69.14;101613.09;5086807;28;20063;-66
2022/04/30 04:30:24;;;;;;;18.50;10.48;;;;;;;6.13;69.12;101613.16;5078609;28;20047;-65
2022/04/30 04:32:50;;;;;;;16.50;9.77;;;;;;;6.37;68.25;101620.50;5077042;28;20449;-65
2022/04/30 04:35:16;;;;;;;23.17;11.82;;;;;;;6.40;68.10;101619.69;5078393;28;20044;-65
2022/04/30 04:37:43;;;;;;;15.77;9.95;;;;;;;6.52;67.63;101608.56;5087177;28;20391;-64
2022/04/30 04:40:10;;;;;;;15.68;9.52;;;;;;;6.52;68.37;101619.88;5089006;28;20028;-65
2022/04/30 04:42:36;;;;;;;14.70;9.55;;;;;;;6.73;67.74;101631.47;5077265;28;20045;-64
2022/04/30 04:45:02;;;;;;;22.55;11.93;;;;;;;6.80;67.79;101615.03;5056789;28;20029;-66
2022/04/30 04:47:28;;;;;;;16.45;10.35;;;;;;;6.81;68.09;101620.28;5074497;28;20036;-64
2022/04/30 04:49:54;;;;;;;14.90;9.35;;;;;;;6.94;68.05;101621.31;5090632;28;20089;-66
2022/04/30 04:52:21;;;;;;;14.88;9.20;;;;;;;7.04;67.88;101620.56;5081145;28;20438;-65
2022/04/30 04:54:46;;;;;;;14.88;10.02;;;;;;;7.26;67.47;101623.44;5089607;28;20426;-65
2022/04/30 04:57:12;;;;;;;15.85;9.98;;;;;;;7.34;67.66;101617.47;5092619;28;20038;-67
2022/04/30 04:59:37;;;;;;;13.82;8.80;;;;;;;7.42;67.82;101614.94;5072598;28;20506;-66
2022/04/30 05:02:03;;;;;;;13.20;7.93;;;;;;;7.57;67.74;101615.06;5092412;28;20024;-65
2022/04/30 05:04:29;;;;;;;15.52;9.45;;;;;;;7.61;67.87;101616.84;5087830;28;20388;-65
2022/04/30 05:06:55;;;;;;;15.18;9.10;;;;;;;7.77;67.42;101620.50;5081729;28;20479;-65
2022/04/30 05:09:20;;;;;;;12.88;7.60;;;;;;;7.98;67.56;101635.56;5073450;28;20036;-66
2022/04/30 05:11:46;;;;;;;12.73;7.38;;;;;;;7.88;68.82;101646.78;5076147;28;20035;-65
2022/04/30 05:14:11;;;;;;;10.85;6.78;;;;;;;8.01;68.56;101646.03;5077909;28;20131;-65
2022/04/30 05:16:36;;;;;;;12.05;6.78;;;;;;;8.25;67.80;101641.84;5089638;28;20070;-64
2022/04/30 05:19:05;;;;;;;11.30;7.20;;;;;;;8.56;67.91;101636.00;5077921;28;20425;-66
2022/04/30 05:21:30;;;;;;;10.50;6.78;;;;;;;8.78;66.86;101638.78;5090185;28;20368;-65
2022/04/30 05:23:56;;;;;;;10.00;6.07;;;;;;;8.96;66.53;101643.25;5083317;28;20051;-65
2022/04/30 05:26:21;;;;;;;7.68;4.65;;;;;;;9.10;66.16;101637.19;5090696;28;20189;-65
2022/04/30 05:28:47;;;;;;;12.65;6.57;;;;;;;9.17;66.20;101647.69;5089540;28;20040;-66
2022/04/30 05:31:12;;;;;;;12.50;7.38;;;;;;;9.26;66.07;101640.75;5090724;28;20036;-66
2022/04/30 05:33:37;;;;;;;16.38;8.98;;;;;;;9.34;66.17;101641.66;5076412;28;20033;-65
2022/04/30 05:36:03;;;;;;;15.95;8.07;;;;;;;9.61;65.59;101645.22;5082765;28;20051;-65
2022/04/30 05:38:29;;;;;;;12.05;5.63;;;;;;;9.61;65.62;101653.09;5087439;28;20044;-65
2022/04/30 05:40:54;;;;;;;9.82;5.07;;;;;;;9.74;65.15;101656.66;5075589;28;20111;-67
2022/04/30 05:43:20;;;;;;;9.25;4.85;;;;;;;9.83;65.08;101654.91;5085801;28;20037;-67
2022/04/30 05:45:45;;;;;;;8.88;4.72;;;;;;;9.92;65.13;101654.03;5077573;28;20063;-66
2022/04/30 05:48:11;;;;;;;8.80;4.93;;;;;;;9.97;65.16;101649.66;5075598;28;20036;-67
2022/04/30 05:50:37;;;;;;;8.50;5.18;;;;;;;10.21;64.14;101650.53;5089365;28;20404;-67
2022/04/30 05:53:04;;;;;;;8.65;3.92;;;;;;;10.35;63.32;101648.84;5080483;28;20028;-67
2022/04/30 05:55:30;;;;;;;6.72;3.88;;;;;;;10.42;62.61;101649.72;5075227;28;20503;-65
2022/04/30 05:57:56;;;;;;;6.10;3.33;;;;;;;10.42;62.46;101652.34;5073609;28;20036;-67
2022/04/30 06:00:21;;;;;;;8.65;4.82;;;;;;;10.52;61.72;101652.31;5073638;28;20454;-67
2022/04/30 06:02:47;;;;;;;15.30;6.70;;;;;;;10.65;61.31;101647.91;5057235;28;20040;-67
2022/04/30 06:05:13;;;;;;;23.98;10.05;;;;;;;10.84;60.39;101647.00;5078284;28;20048;-66
2022/04/30 06:07:39;;;;;;;25.35;9.98;;;;;;;10.95;59.76;101644.34;5077173;28;20039;-65
2022/04/30 06:10:05;;;;;;;19.20;8.18;;;;;;;10.95;59.45;101633.81;5072201;28;20438;-66
2022/04/30 06:12:31;;;;;;;17.40;7.13;;;;;;;11.08;59.10;101640.78;5063110;28;20063;-67
2022/04/30 06:14:57;;;;;;;14.88;8.02;;;;;;;11.03;58.80;101639.94;5076408;28;20094;-65
2022/04/30 06:17:22;;;;;;;13.93;5.88;;;;;;;11.20;58.39;101647.75;5072250;28;20036;-65
2022/04/30 06:19:48;;;;;;;18.83;5.93;;;;;;;11.30;57.96;101640.72;5080480;28;20087;-66
2022/04/30 06:22:13;;;;;;;19.25;7.60;;;;;;;11.42;57.43;101640.66;5080320;28;20033;-67
2022/04/30 06:24:38;;;;;;;18.50;7.35;;;;;;;11.48;57.06;101630.06;5051615;28;20401;-66
2022/04/30 06:27:05;;;;;;;17.50;6.95;;;;;;;11.57;56.44;101645.84;5062672;28;20032;-65
2022/04/30 06:29:31;;;;;;;13.38;5.60;;;;;;;11.79;55.74;101643.06;5070026;28;20036;-65
2022/04/30 06:31:56;;;;;;;13.63;6.13;;;;;;;11.98;55.30;101636.81;5071298;28;20448;-65
2022/04/30 06:34:22;;;;;;;7.53;4.38;;;;;;;12.16;54.70;101640.19;5054456;28;20028;-66
2022/04/30 06:36:48;;;;;;;15.02;6.40;;;;;;;12.29;54.36;101642.72;5071325;28;20040;-65
2022/04/30 06:39:13;;;;;;;9.48;4.43;;;;;;;12.41;53.93;101640.84;5072757;28;20036;-69
2022/04/30 06:41:39;;;;;;;13.93;6.03;;;;;;;12.56;53.55;101640.69;5072695;28;20369;-68
2022/04/30 06:44:04;;;;;;;11.75;5.88;;;;;;;12.67;53.18;101643.22;5073085;28;20111;-67
2022/04/30 06:46:30;;;;;;;8.77;5.45;;;;;;;12.81;52.66;101643.97;5056357;28;20028;-67
2022/04/30 06:48:56;;;;;;;8.80;4.53;;;;;;;12.96;51.99;101641.13;5074106;28;20041;-67
2022/04/30 06:51:21;;;;;;;6.22;3.53;;;;;;;12.94;51.81;101635.03;5072596;28;20377;-68
2022/04/30 06:59:14;;;;;;;4.85;2.78;;;;;;;13.27;50.68;101632.91;5058973;28;20089;-68
2022/04/30 07:02:00;;;;;;;6.88;3.15;;;;;;;13.38;49.96;101640.69;5055830;28;20033;-68
2022/04/30 07:04:32;;;;;;;5.45;3.33;;;;;;;13.39;50.10;101634.50;5073474;28;20190;-67
2022/04/30 07:06:58;;;;;;;6.45;2.90;;;;;;;13.48;49.90;101635.22;5072700;28;20456;-69
2022/04/30 07:09:23;;;;;;;4.93;2.72;;;;;;;13.65;49.27;101634.16;5072681;28;20046;-68
2022/04/30 07:11:48;;;;;;;4.72;3.22;;;;;;;13.72;48.91;101633.16;5072254;28;20032;-68
2022/04/30 07:14:14;;;;;;;4.18;2.50;;;;;;;13.84;48.64;101632.97;5073679;28;20055;-69
2022/04/30 07:16:40;;;;;;;5.03;2.28;;;;;;;13.99;47.49;101631.84;5072271;28;20085;-68
2022/04/30 07:19:05;;;;;;;3.95;1.90;;;;;;;14.13;46.73;101635.16;5055315;28;20063;-67
2022/04/30 07:21:32;;;;;;;3.60;2.15;;;;;;;14.27;46.50;101632.28;5056018;28;20029;-69
2022/04/30 07:23:58;;;;;;;4.78;2.60;;;;;;;14.34;45.98;101633.91;5072401;28;20040;-68
2022/04/30 07:26:24;;;;;;;4.97;2.67;;;;;;;14.45;45.63;101631.97;5072143;28;20066;-68
2022/04/30 07:28:51;;;;;;;6.38;3.10;;;;;;;14.53;45.25;101622.16;5073464;28;20064;-67
2022/04/30 07:31:16;;;;;;;6.55;3.10;;;;;;;14.59;45.20;101626.44;5055584;28;20040;-67
2022/04/30 07:33:42;;;;;;;3.22;1.80;;;;;;;14.68;44.22;101614.81;5072414;28;20043;-66
2022/04/30 07:36:07;;;;;;;4.85;2.00;;;;;;;14.67;43.71;101615.72;5072069;28;20107;-68
2022/04/30 07:38:33;;;;;;;4.95;2.00;;;;;;;14.82;43.27;101618.06;5072816;28;20032;-69
2022/04/30 07:40:59;;;;;;;4.38;1.60;;;;;;;14.89;42.64;101611.78;5072379;28;20456;-69
2022/04/30 07:43:24;;;;;;;4.72;1.70;;;;;;;15.02;42.36;101602.66;5055370;28;20361;-69
2022/04/30 07:45:49;;;;;;;5.20;1.83;;;;;;;15.09;41.33;101605.19;5073144;28;20044;-67
2022/04/30 07:48:15;;;;;;;2.60;1.65;;;;;;;15.22;41.50;101609.31;5072283;28;20387;-68
2022/04/30 07:50:44;;;;;;;3.58;1.98;;;;;;;15.36;40.96;101612.56;5055246;28;20439;-67
2022/04/30 07:53:13;;;;;;;2.60;1.30;;;;;;;15.51;40.44;101609.53;5073796;28;20064;-68
2022/04/30 07:55:39;;;;;;;2.88;1.67;;;;;;;15.55;39.85;101614.78;5071901;28;20067;-68
2022/04/30 07:58:05;;;;;;;1.65;1.15;;;;;;;15.75;38.97;101609.91;5076897;28;20067;-68
2022/04/30 08:00:30;;;;;;;3.72;1.70;;;;;;;15.88;38.14;101600.78;5059330;28;20071;-67
2022/04/30 08:02:56;;;;;;;3.25;1.10;;;;;;;16.04;37.48;101603.94;5059159;28;20062;-68
2022/04/30 08:05:26;;;;;;;2.10;1.30;;;;;;;16.23;36.72;101602.53;5076840;28;20052;-68
2022/04/30 08:07:52;;;;;;;3.20;1.60;;;;;;;15.96;37.61;101598.81;5075877;28;20519;-69
2022/04/30 08:10:18;;;;;;;3.75;1.25;;;;;;;16.05;37.96;101589.75;5059115;28;20075;-68
2022/04/30 08:12:44;;;;;;;3.25;2.10;;;;;;;16.07;38.28;101606.47;5077018;28;20487;-69
2022/04/30 08:15:10;;;;;;;3.03;2.00;;;;;;;16.16;38.31;101606.28;5076912;28;20036;-68
2022/04/30 08:17:38;;;;;;;3.40;1.67;;;;;;;16.11;38.19;101601.97;5075726;28;20032;-69
2022/04/30 08:20:05;;;;;;;3.13;2.00;;;;;;;16.07;38.30;101606.47;5059259;28;20024;-68
2022/04/30 08:22:31;;;;;;;5.03;1.98;;;;;;;15.91;38.31;101603.34;5075840;28;20372;-69
2022/04/30 08:24:56;;;;;;;3.17;1.85;;;;;;;15.95;37.50;101604.13;5058851;28;20043;-69
2022/04/30 08:27:22;;;;;;;2.63;1.50;;;;;;;15.98;37.74;101591.69;5075225;28;20054;-69
2022/04/30 08:29:48;;;;;;;3.88;2.47;;;;;;;16.00;37.62;101595.19;5075437;28;20036;-68
2022/04/30 08:32:15;;;;;;;7.10;4.28;;;;;;;16.09;37.33;101604.69;5075320;28;20020;-69
2022/04/30 08:34:41;;;;;;;4.72;1.95;;;;;;;16.24;37.31;101598.13;5076711;28;20108;-69
2022/04/30 08:37:06;;;;;;;3.42;1.60;;;;;;;16.37;37.24;101588.06;5076595;28;20036;-69
2022/04/30 08:39:32;;;;;;;3.30;1.23;;;;;;;16.42;36.65;101605.56;5076930;28;20086;-69
2022/04/30 08:41:58;;;;;;;2.15;1.23;;;;;;;16.53;36.09;101594.69;5059845;28;20120;-69
2022/04/30 08:44:24;;;;;;;1.98;1.20;;;;;;;16.64;35.93;101597.06;5075152;28;20059;-67
2022/04/30 08:46:49;;;;;;;1.42;0.77;;;;;;;16.72;35.32;101592.41;5042434;28;20117;-69
2022/04/30 08:49:15;;;;;;;1.52;0.90;;;;;;;16.75;34.96;101595.00;5075431;28;20447;-69
2022/04/30 08:51:41;;;;;;;3.70;1.00;;;;;;;16.82;34.64;101593.91;5075183;28;20044;-69
2022/04/30 08:54:07;;;;;;;9.90;5.60;;;;;;;16.77;34.74;101601.13;5075091;28;20040;-69
2022/04/30 08:56:38;;;;;;;3.75;2.03;;;;;;;16.75;33.58;101590.53;5076084;28;20115;-69
2022/04/30 08:59:07;;;;;;;1.73;0.90;;;;;;;16.82;34.27;101588.59;5074837;28;20038;-69
2022/04/30 09:02:09;;;;;;;2.50;0.75;;;;;;;16.86;32.73;101576.13;5074871;28;20036;-69
2022/04/30 09:04:43;;;;;;;2.37;1.10;;;;;;;16.83;32.42;101579.72;5073441;28;20059;-70
2022/04/30 09:07:13;;;;;;;2.05;0.80;;;;;;;16.86;33.45;101579.63;5075125;28;20033;-69
2022/04/30 09:09:39;;;;;;;1.65;0.93;;;;;;;16.93;33.57;101572.38;5074965;28;20070;-69
2022/04/30 09:12:09;;;;;;;1.77;0.93;;;;;;;16.94;32.54;101572.31;5058000;28;20131;-68
2022/04/30 09:14:37;;;;;;;1.17;0.63;;;;;;;16.96;33.53;101573.16;5074537;28;20036;-69
2022/04/30 09:17:11;;;;;;;1.55;0.90;;;;;;;17.04;32.98;101566.75;5074690;28;20546;-70
2022/04/30 09:19:52;;;;;;;1.63;0.80;;;;;;;17.10;32.54;101570.09;5076092;28;20426;-69
2022/04/30 09:22:38;;;;;;;1.67;0.85;;;;;;;17.07;32.20;101570.16;5074440;28;20032;-69
2022/04/30 09:25:07;;;;;;;1.80;0.90;;;;;;;17.14;33.36;101566.41;5075641;28;20070;-70
2022/04/30 09:27:32;;;;;;;1.77;0.85;;;;;;;17.17;32.90;101568.13;5074296;28;20130;-69
2022/04/30 09:29:58;;;;;;;3.63;0.80;;;;;;;17.21;32.75;101564.47;5058035;28;20058;-69
2022/04/30 09:32:26;;;;;;;3.13;0.82;;;;;;;17.31;32.43;101573.88;5057525;28;20054;-68
2022/04/30 09:37:49;;;;;;;2.85;0.80;;;;;;;17.32;31.66;101569.44;5075402;28;20043;-70
2022/04/30 09:40:14;;;;;;;1.50;0.95;;;;;;;17.35;31.74;101570.19;5075509;28;20044;-69
2022/04/30 09:42:46;;;;;;;1.45;0.77;;;;;;;17.35;29.80;101570.19;5073884;28;20024;-69
2022/04/30 09:45:34;;;;;;;1.88;0.90;;;;;;;17.45;29.96;101558.38;5073765;28;20028;-69
2022/04/30 09:53:55;;;;;;;2.22;0.90;;;;;;;17.46;31.43;101553.94;5057254;28;20040;-70
2022/04/30 09:56:38;;;;;;;2.95;1.17;;;;;;;17.60;31.38;101554.38;5075270;28;20529;-70
2022/04/30 09:59:05;;;;;;;2.05;1.17;;;;;;;17.68;31.53;101546.16;5074872;28;20032;-69
2022/04/30 10:01:33;;;;;;;2.28;0.80;;;;;;;17.79;31.51;101541.38;5073556;28;20037;-69
2022/04/30 10:04:03;;;;;;;2.85;1.20;;;;;;;17.90;31.64;101541.00;5056662;28;20551;-69
2022/04/30 10:06:29;;;;;;;2.58;1.00;;;;;;;17.98;31.25;101537.16;5073379;28;20470;-69
2022/04/30 10:08:56;;;;;;;2.45;1.10;;;;;;;18.17;30.65;101545.38;5056861;28;20060;-69
2022/04/30 10:11:34;;;;;;;2.55;1.02;;;;;;;18.33;29.72;101544.84;5073587;28;20119;-70
2022/04/30 10:14:13;;;;;;;4.28;1.40;;;;;;;18.41;29.67;101535.66;5073202;28;20035;-70
2022/04/30 10:16:42;;;;;;;2.03;0.93;;;;;;;18.53;30.03;101530.84;5074507;28;20039;-70
2022/04/30 10:19:15;;;;;;;2.10;0.82;;;;;;;18.41;29.49;101535.66;5072908;28;20119;-70
2022/04/30 10:21:41;;;;;;;2.13;0.98;;;;;;;18.58;29.18;101539.50;5074611;28;20056;-70
2022/04/30 10:24:09;;;;;;;4.07;0.90;;;;;;;18.60;28.66;101530.56;5073256;28;20080;-69
2022/04/30 10:26:35;;;;;;;3.20;0.80;;;;;;;18.82;28.05;101517.31;5072771;28;20064;-70
2022/04/30 10:29:11;;;;;;;2.45;0.98;;;;;;;18.77;25.81;101519.31;5074416;28;20067;-70
2022/04/30 10:31:44;;;;;;;1.83;0.85;;;;;;;18.82;26.25;101521.78;5073141;28;20040;-70
2022/04/30 10:34:11;;;;;;;2.13;1.00;;;;;;;18.87;27.66;101515.38;5073205;28;20448;-71
2022/04/30 10:36:39;;;;;;;1.67;0.80;;;;;;;19.23;27.65;101512.22;5072953;28;20044;-70
2022/04/30 10:39:09;;;;;;;4.63;1.02;;;;;;;19.60;27.72;101513.38;5073236;28;20036;-69
2022/04/30 10:41:42;;;;;;;2.25;0.90;;;;;;;20.11;27.09;101506.81;5073102;28;20025;-69
2022/04/30 10:44:08;;;;;;;1.30;0.70;;;;;;;20.13;27.16;101504.94;5074097;28;20036;-70
2022/04/30 10:46:38;;;;;;;2.53;0.80;;;;;;;20.21;26.96;101494.78;5074070;28;20032;-70
2022/04/30 10:49:05;;;;;;;6.25;1.60;;;;;;;20.39;27.17;101493.09;5056407;28;20029;-70
2022/04/30 10:51:34;;;;;;;5.93;1.27;;;;;;;20.33;27.07;101493.38;5074059;28;20037;-70
2022/04/30 10:54:05;;;;;;;5.28;1.20;;;;;;;20.26;26.88;101500.78;5073588;28;20460;-70
2022/04/30 10:56:31;;;;;;;3.15;0.90;;;;;;;20.45;27.19;101489.28;5072632;28;20077;-69
2022/04/30 10:58:56;;;;;;;2.70;0.82;;;;;;;20.63;26.55;101484.00;5073708;28;20036;-70
2022/04/30 11:01:22;;;;;;;3.88;1.33;;;;;;;20.93;26.38;101478.16;5073403;28;20033;-69
2022/04/30 11:03:49;;;;;;;11.23;1.33;;;;;;;21.13;26.34;101477.19;5039334;28;20098;-70
2022/04/30 11:06:20;;;;;;;2.58;1.00;;;;;;;20.89;25.61;101468.56;5072659;28;20082;-70
2022/04/30 11:09:08;;;;;;;3.42;0.88;;;;;;;20.90;25.59;101475.63;5072583;28;20048;-69
2022/04/30 11:11:35;;;;;;;2.25;0.90;;;;;;;20.81;27.70;101476.06;5074019;28;20036;-70
2022/04/30 11:14:00;;;;;;;2.15;0.88;;;;;;;20.94;27.36;101477.22;5074033;28;20040;-71
2022/04/30 11:16:42;;;;;;;6.35;1.30;;;;;;;21.05;27.52;101466.03;5072322;28;20132;-69
2022/04/30 11:19:11;;;;;;;3.67;1.27;;;;;;;21.20;27.41;101461.75;5072782;28;20041;-72
2022/04/30 11:21:41;;;;;;;3.83;1.42;;;;;;;21.28;26.78;101472.94;5072346;28;20024;-71
2022/04/30 11:24:08;;;;;;;5.30;1.30;;;;;;;21.48;27.17;101470.16;5073684;28;20024;-71
2022/04/30 11:26:40;;;;;;;5.22;1.10;;;;;;;21.71;25.99;101463.66;5055712;28;20468;-69
2022/04/30 11:29:08;;;;;;;2.25;0.70;;;;;;;21.67;26.13;101464.75;5072476;28;20027;-69
2022/04/30 11:31:33;;;;;;;2.63;1.10;;;;;;;21.79;26.08;101460.59;5071254;28;20094;-70
2022/04/30 11:34:09;;;;;;;5.90;1.08;;;;;;;22.10;24.80;101460.72;5072739;28;20040;-70
2022/04/30 11:36:42;;;;;;;3.22;0.85;;;;;;;22.47;24.96;101455.25;5073553;28;20074;-70
2022/04/30 11:39:10;;;;;;;3.03;0.93;;;;;;;22.87;24.50;101452.09;5072282;28;20032;-70
2022/04/30 11:41:44;;;;;;;2.35;0.80;;;;;;;22.94;23.96;101458.00;5073417;28;20037;-70
2022/04/30 11:44:14;;;;;;;2.65;0.90;;;;;;;22.83;24.57;101445.19;5072607;28;20060;-70
2022/04/30 11:46:40;;;;;;;2.88;0.85;;;;;;;22.51;24.60;101444.28;5072042;28;20082;-69
2022/04/30 11:49:14;;;;;;;0.90;0.65;;;;;;;22.38;24.21;101449.44;5072322;28;20036;-70
2022/04/30 11:51:41;;;;;;;3.92;1.10;;;;;;;22.28;24.83;101448.19;5073265;28;20028;-69
2022/04/30 11:54:15;;;;;;;2.00;0.98;;;;;;;22.00;24.11;101442.56;5071739;28;20487;-68
2022/04/30 11:56:42;;;;;;;2.38;1.10;;;;;;;21.99;24.46;101430.13;5055842;28;20078;-69